Latest Weather Observations for Launceston Airport

IDT60801

Issued at 6:02 pm EST Saturday 27 May 2017 (issued every 30 minutes, with the page automatically refreshed every 10 minutes)

About weather observations | Map of weather stations | Latest weather observations for TAS | Other Formats
Station Details ID: 091311 Name: LAUNCESTON AIRPORT Lat: -41.55 Lon: 147.21 Height: 166.9 m
Data from the previous 72 hours. | See also: Recent months at Launceston Airport
Date/Time
EST
Temp
°C
App
Temp
°C
Dew
Point
°C
Rel
Hum
%
Delta-T
°C
Wind Press
QNH
hPa
Press
MSL
hPa
Rain since
9am
mm
Dir  Spd
km/h
Gust
km/h
Spd
kts
Gust
kts
27/05:30pm 13.6 8.7 10.0 79 1.9 N 26 33 14 18 1008.8 1009.0 2.8
27/05:00pm 13.6 8.4 10.2 80 1.8 NNW 28 35 15 19 1008.9 1009.1 2.8
27/04:30pm 13.8 8.6 10.4 80 1.8 NNW 28 37 15 20 1009.0 1009.2 2.8
27/04:00pm 13.8 8.6 10.4 80 1.8 NNW 28 39 15 21 1009.2 1009.4 2.8
27/03:30pm 14.0 8.1 10.4 79 1.9 N 32 43 17 23 1009.2 1009.4 2.8
27/03:00pm 14.2 8.3 10.6 79 1.9 NNW 32 43 17 23 1009.2 1009.4 2.8
27/02:30pm 14.4 8.0 10.8 79 1.9 N 35 46 19 25 1009.5 1009.7 2.8
27/02:00pm 14.4 8.1 11.0 80 1.8 NNW 35 44 19 24 1009.9 1010.1 2.8
27/01:30pm 14.3 8.0 11.1 81 1.7 NNW 35 46 19 25 1010.3 1010.5 2.8
27/01:00pm 14.1 8.4 11.1 82 1.6 NNW 32 43 17 23 1010.8 1011.0 2.8
27/12:30pm 13.9 8.2 11.1 83 1.5 N 32 43 17 23 1011.3 1011.5 2.8
27/12:00pm 13.3 8.6 10.8 85 1.3 NNW 26 35 14 19 1012.1 1012.3 2.6
27/11:43am 13.7 7.4 10.9 83 1.5 N 35 46 19 25 1012.3 1012.5 2.2
27/11:30am 13.3 7.7 11.4 88 1.0 NNW 32 43 17 23 1012.5 1012.7 2.2
27/11:20am 13.0 7.1 11.1 88 1.0 NNW 33 50 18 27 1012.6 1012.8 2.2
27/11:17am 13.0 7.3 11.2 89 1.0 NW 32 46 17 25 1012.6 1012.8 2.2
27/11:01am 12.2 8.8 10.4 89 0.9 WNW 19 28 10 15 1012.9 1013.1 1.4
27/11:00am 12.3 8.9 10.5 89 0.9 WNW 19 28 10 15 1012.6 1012.8 1.0
27/10:30am 13.3 8.8 9.9 80 1.8 N 24 32 13 17 1013.4 1013.6 0.0
27/10:00am 11.9 8.1 9.1 83 1.4 NNW 19 24 10 13 1013.9 1014.1 0.0
27/09:30am 11.7 8.2 8.9 83 1.4 N 17 22 9 12 1014.3 1014.5 0.0
27/09:00am 10.7 7.6 8.8 88 0.9 NNW 15 19 8 10 1014.8 1015.0 0.0
27/08:30am 10.3 6.9 9.1 92 0.6 NNW 17 20 9 11 1015.0 1015.2 0.0
27/08:00am 9.4 5.7 8.0 91 0.7 NNW 17 20 9 11 1015.0 1015.2 0.0
27/07:30am 8.5 4.1 6.6 88 0.9 N 19 24 10 13 1014.9 1015.1 0.0
27/07:00am 8.5 4.5 6.6 88 0.9 NNW 17 19 9 10 1015.0 1015.2 0.0
27/06:30am 8.6 5.0 6.7 88 0.9 NW 15 17 8 9 1015.1 1015.3 0.0
27/06:00am 9.3 4.9 6.7 84 1.2 N 19 24 10 13 1015.0 1015.2 0.0
27/05:30am 9.7 5.3 6.4 80 1.5 NW 19 22 10 12 1015.3 1015.5 0.0
27/05:00am 9.5 4.8 6.0 79 1.6 NW 20 26 11 14 1015.5 1015.7 0.0
27/04:30am 8.5 4.3 5.6 82 1.3 NW 17 20 9 11 1015.6 1015.8 0.0
27/04:00am 8.0 3.7 5.3 83 1.2 NNW 17 20 9 11 1016.1 1016.3 0.0
27/03:30am 7.2 2.8 4.7 84 1.1 NNW 17 20 9 11 1016.5 1016.8 0.0
27/03:00am 7.8 3.5 5.1 83 1.2 NNW 17 20 9 11 1016.8 1017.1 0.0
27/02:30am 6.7 2.2 4.4 85 1.0 NW 17 20 9 11 1017.0 1017.3 0.0
27/02:00am 5.9 1.7 3.7 86 0.9 NW 15 17 8 9 1017.1 1017.4 0.0
27/01:30am 7.2 3.6 4.9 85 1.0 NNW 13 13 7 7 1017.3 1017.6 0.0
27/01:00am 8.2 4.9 6.5 89 0.8 NW 13 17 7 9 1017.8 1018.1 0.0
27/12:30am 8.0 4.7 6.6 91 0.7 NNW 13 15 7 8 1018.0 1018.3 0.0
27/12:00am 7.5 4.6 6.4 93 0.5 NNW 11 15 6 8 1018.3 1018.5 0.0
 
Date/Time
EST
Temp
°C
App
Temp
°C
Dew
Point
°C
Rel
Hum
%
Delta-T
°C
Wind Press
QNH
hPa
Press
MSL
hPa
Rain since
9am
mm
Dir  Spd
km/h
Gust
km/h
Spd
kts
Gust
kts
26/11:30pm 7.3 4.4 6.4 94 0.4 NNW 11 13 6 7 1018.5 1018.7 0.0
26/11:00pm 7.1 4.6 6.4 95 0.3 N 9 13 5 7 1018.7 1018.9 0.0
26/10:30pm 6.6 3.6 5.9 95 0.3 N 11 15 6 8 1019.1 1019.3 0.0
26/10:00pm 5.5 1.8 4.6 94 0.4 NW 13 15 7 8 1019.2 1019.4 0.0
26/09:30pm 4.3 0.8 3.3 93 0.4 NNW 11 13 6 7 1019.2 1019.4 0.0
26/09:25pm 4.6 1.5 3.6 93 0.4 NNW 9 11 5 6 1019.2 1019.4 0.0
26/09:00pm 5.4 2.5 4.4 93 0.4 N 9 11 5 6 1019.0 1019.2 0.0
26/08:59pm 5.3 2.3 4.1 92 0.5 N 9 11 5 6 1019.0 1019.2 0.0
26/08:30pm 6.2 3.7 4.7 90 0.7 N 7 9 4 5 1019.1 1019.3 0.0
26/08:00pm 6.0 3.0 4.3 89 0.7 N 9 9 5 5 1019.1 1019.3 0.0
26/07:30pm 6.9 4.2 5.5 91 0.6 N 9 9 5 5 1019.0 1019.2 0.0
26/07:00pm 6.5 3.2 4.7 88 0.8 N 11 15 6 8 1018.8 1019.0 0.0
26/06:30pm 6.8 3.2 5.0 88 0.8 N 13 17 7 9 1018.7 1018.9 0.0
26/06:00pm 6.6 2.8 3.8 82 1.2 N 13 15 7 8 1018.6 1018.8 0.0
26/05:30pm 7.6 3.5 4.2 79 1.5 NNW 15 19 8 10 1018.3 1018.5 0.0
26/05:00pm 9.2 4.8 4.8 74 2.0 N 17 20 9 11 1018.2 1018.4 0.0
26/04:30pm 10.5 6.4 4.6 67 2.7 N 15 19 8 10 1017.8 1018.1 0.0
26/04:00pm 11.9 7.1 4.9 62 3.2 NNW 19 22 10 12 1017.8 1018.1 0.0
26/03:30pm 13.1 9.4 4.3 55 4.0 NW 13 19 7 10 1017.8 1018.1 0.0
26/03:00pm 12.6 9.1 3.6 54 4.1 NW 11 15 6 8 1017.9 1018.2 0.0
26/02:30pm 12.2 7.8 4.7 60 3.5 N 17 22 9 12 1017.9 1018.2 0.0
26/02:00pm 13.0 8.6 4.9 58 3.8 N 17 22 9 12 1018.2 1018.4 0.0
26/01:30pm 12.2 8.2 5.1 62 3.3 NNW 15 20 8 11 1018.5 1018.7 0.0
26/01:00pm 12.6 8.4 5.5 62 3.3 N 17 24 9 13 1018.5 1018.7 0.0
26/12:30pm 12.1 7.9 5.5 64 3.1 N 17 22 9 12 1018.9 1019.1 0.0
26/12:00pm 11.8 8.4 5.7 66 2.9 NNW 13 17 7 9 1019.1 1019.3 0.0
26/11:30am 11.0 7.9 5.7 70 2.5 N 11 15 6 8 1019.2 1019.4 0.0
26/11:00am 10.3 6.5 5.9 74 2.0 N 15 19 8 10 1019.6 1019.8 0.0
26/10:30am 9.5 5.2 5.3 75 1.9 N 17 20 9 11 1019.6 1019.8 0.0
26/10:00am 8.8 5.3 5.5 80 1.5 N 13 20 7 11 1019.6 1019.8 0.0
26/09:30am 7.7 5.0 5.7 87 0.9 N 9 11 5 6 1019.3 1019.5 0.0
26/09:00am 6.5 4.2 5.9 96 0.3 NNE 7 9 4 5 1019.3 1019.5 1.2
26/08:30am 4.3 1.6 3.7 96 0.3 N 7 11 4 6 1018.9 1019.1 1.2
26/08:00am 3.7 0.1 3.1 96 0.2 NNW 11 13 6 7 1018.6 1018.8 1.2
26/07:30am 1.8 -2.5 1.1 95 0.3 NNE 13 13 7 7 1018.0 1018.3 1.2
26/07:00am 4.1 0.3 3.7 97 0.2 NW 13 13 7 7 1017.7 1018.0 1.2
26/06:30am 2.6 -1.6 1.9 95 0.3 NNW 13 13 7 7 1017.3 1017.6 1.2
26/06:00am 2.8 -0.6 1.9 94 0.4 NNW 9 11 5 6 1016.9 1017.2 1.2
26/05:30am 4.9 3.6 4.2 95 0.3 CALM 0 0 0 0 1016.5 1016.8 1.2
26/05:00am 4.1 1.9 3.5 96 0.2 NNW 4 9 2 5 1016.2 1016.4 1.2
26/04:30am 4.9 3.2 4.0 94 0.4 NNW 2 9 1 5 1015.8 1016.0 1.2
26/04:00am 5.6 2.8 5.2 97 0.2 N 9 11 5 6 1015.5 1015.7 1.2
26/03:30am 4.2 1.5 3.6 96 0.3 NW 7 11 4 6 1015.2 1015.4 1.2
26/03:00am 4.6 1.6 4.0 96 0.3 NW 9 11 5 6 1014.8 1015.0 1.0
26/02:30am 5.9 4.9 5.5 97 0.2 CALM 0 0 0 0 1014.6 1014.8 1.0
26/02:00am 4.4 1.3 3.7 95 0.3 NNW 9 13 5 7 1014.5 1014.7 1.0
26/01:51am 5.2 2.3 4.6 96 0.3 NW 9 11 5 6 1014.4 1014.6 1.0
26/01:30am 6.0 3.3 5.6 97 0.2 NNW 9 11 5 6 1014.3 1014.5 1.0
26/01:00am 6.3 3.7 5.9 97 0.2 NW 9 11 5 6 1014.2 1014.4 1.0
26/12:42am 6.1 2.6 5.5 96 0.3 NNW 13 15 7 8 1014.0 1014.2 1.0
26/12:30am 6.4 3.4 5.8 96 0.3 NW 11 15 6 8 1013.9 1014.1 1.0
26/12:27am 6.9 3.6 6.5 97 0.2 NW 13 17 7 9 1013.9 1014.1 1.0
26/12:08am 6.8 3.8 6.2 96 0.3 NW 11 15 6 8 1013.7 1013.9 1.0
26/12:00am 7.6 4.9 7.2 97 0.2 NNW 11 15 6 8 1013.6 1013.8 1.0
 
Date/Time
EST
Temp
°C
App
Temp
°C
Dew
Point
°C
Rel
Hum
%
Delta-T
°C
Wind Press
QNH
hPa
Press
MSL
hPa
Rain since
9am
mm
Dir  Spd
km/h
Gust
km/h
Spd
kts
Gust
kts
25/11:30pm 8.6 5.3 8.2 97 0.2 N 15 17 8 9 1013.2 1013.4 1.0
25/11:00pm 7.8 5.1 7.2 96 0.3 N 11 13 6 7 1013.1 1013.3 1.0
25/10:44pm 7.9 5.1 7.1 95 0.4 NNW 11 13 6 7 1013.0 1013.2 1.0
25/10:30pm 8.8 5.5 8.2 96 0.3 NNW 15 17 8 9 1012.8 1013.0 1.0
25/10:00pm 9.8 6.4 9.2 96 0.3 N 17 20 9 11 1012.4 1012.6 1.0
25/09:30pm 9.9 6.9 9.1 95 0.4 NNW 15 20 8 11 1012.3 1012.5 1.0
25/09:00pm 11.4 8.4 10.8 96 0.3 NNW 17 22 9 12 1012.1 1012.3 1.0
25/08:43pm 11.4 7.9 10.8 96 0.3 NNW 20 24 11 13 1012.0 1012.2 1.0
25/08:30pm 11.3 7.7 10.7 96 0.3 NNW 20 26 11 14 1011.7 1012.0 1.0
25/08:00pm 12.0 8.3 11.4 96 0.3 NNW 22 28 12 15 1011.8 1012.1 1.0
25/07:30pm 12.1 7.6 11.5 96 0.3 NNW 26 35 14 19 1011.5 1011.8 1.0
25/07:00pm 12.0 7.5 11.4 96 0.3 NNW 26 35 14 19 1011.6 1011.9 1.0
25/06:30pm 11.8 7.2 11.2 96 0.3 NNW 26 37 14 20 1011.4 1011.7 1.0
25/06:18pm 11.7 6.3 10.9 95 0.4 NNW 30 39 16 21 1011.4 1011.7 1.0
25/06:05pm 11.6 6.9 10.5 93 0.6 N 26 35 14 19 1011.4 1011.7 1.0
25/06:00pm 11.6 6.8 10.3 92 0.7 NNW 26 33 14 18 1011.5 1011.8 0.8
25/05:59pm 11.6 6.8 10.3 92 0.7 NNW 26 33 14 18 1011.4 1011.7 0.8
25/05:47pm 11.8 7.3 10.2 90 0.8 NNW 24 30 13 16 1011.6 1011.9 0.8
25/05:35pm 12.0 7.9 10.2 89 0.9 NNW 22 35 12 19 1011.6 1011.9 0.8
25/05:30pm 11.8 8.1 10.0 89 0.9 NNW 20 30 11 16 1011.7 1012.0 0.8
25/05:00pm 12.0 6.7 9.9 87 1.1 NNW 28 39 15 21 1011.7 1012.0 0.8
25/04:30pm 12.0 6.3 9.7 86 1.2 NNW 30 39 16 21 1011.6 1011.9 0.8
25/04:00pm 12.3 8.3 10.4 88 1.0 NNW 22 30 12 16 1012.0 1012.2 0.8
25/03:36pm 11.9 8.2 10.3 90 0.8 NNW 20 30 11 16 1012.1 1012.3 0.8
25/03:30pm 11.9 7.1 10.3 90 0.8 NW 26 32 14 17 1012.2 1012.4 0.8
25/03:16pm 12.1 7.6 10.0 87 1.1 NNW 24 30 13 16 1012.3 1012.5 0.6
25/03:00pm 12.9 8.5 10.4 85 1.3 NNW 24 32 13 17 1012.2 1012.4 0.6
25/02:33pm 13.1 9.0 11.3 89 1.0 NNW 24 33 13 18 1012.4 1012.6 0.6
25/02:30pm 12.9 8.7 11.1 89 1.0 N 24 33 13 18 1012.4 1012.6 0.6
25/02:02pm 12.2 8.5 11.4 95 0.4 N 22 32 12 17 1012.8 1013.0 0.6
25/02:00pm 12.0 8.2 11.1 94 0.5 N 22 32 12 17 1012.7 1012.9 0.6
25/01:39pm 12.0 7.6 10.4 90 0.8 NNW 24 33 13 18 1013.0 1013.2 0.2
25/01:30pm 12.2 7.0 10.3 88 1.0 NNW 28 37 15 20 1013.0 1013.2 0.0
25/01:26pm 12.3 7.0 10.0 86 1.2 NNW 28 37 15 20 1013.1 1013.3 0.0
25/01:13pm 13.2 7.9 10.0 81 1.7 NNW 28 37 15 20 1013.2 1013.4 0.0
25/01:03pm 13.3 8.2 10.5 83 1.5 N 28 35 15 19 1013.2 1013.4 0.0
25/01:00pm 13.3 8.2 10.5 83 1.5 NNW 28 33 15 18 1013.2 1013.4 0.0
25/12:37pm 12.8 7.9 10.0 83 1.5 N 26 32 14 17 1013.8 1014.0 0.0
25/12:30pm 13.0 7.7 9.8 81 1.7 NNW 28 35 15 19 1013.8 1014.0 0.0
25/12:00pm 13.0 7.6 9.6 80 1.7 NNW 28 35 15 19 1014.3 1014.5 0.0
25/11:46am 13.1 8.5 9.5 79 1.8 NNW 24 32 13 17 1014.5 1014.7 0.0
25/11:33am 13.0 8.1 9.8 81 1.7 N 26 32 14 17 1014.8 1015.0 0.0
25/11:30am 12.8 8.2 9.6 81 1.6 N 24 30 13 16 1014.9 1015.1 0.0
25/11:00am 12.2 7.9 9.2 82 1.5 N 22 30 12 16 1015.4 1015.6 0.0
25/10:30am 11.9 6.8 9.1 83 1.4 NNW 26 33 14 18 1015.7 1015.9 0.0
25/10:00am 11.2 6.5 9.1 87 1.1 NNW 24 30 13 16 1015.6 1015.8 0.0
25/09:30am 10.9 6.0 8.5 85 1.2 NNW 24 33 13 18 1015.5 1015.7 0.0
25/09:00am 10.2 6.1 8.6 90 0.8 NNW 20 24 11 13 1015.7 1015.9 0.0
25/08:30am 9.0 5.8 8.4 96 0.3 NNW 15 17 8 9 1015.7 1015.9 0.0
25/08:00am 7.0 3.3 6.4 96 0.3 N 15 17 8 9 1015.5 1015.7 0.0
25/07:30am 5.9 1.6 5.3 96 0.3 NNW 17 19 9 10 1015.4 1015.6 0.0
25/07:00am 5.4 1.4 4.8 96 0.3 NNW 15 17 8 9 1015.2 1015.4 0.0
25/06:30am 5.3 0.9 4.7 96 0.3 NNW 17 22 9 12 1015.1 1015.3 0.0
25/06:00am 5.1 0.7 4.5 96 0.3 NNW 17 19 9 10 1014.8 1015.0 0.0
25/05:34am 4.5 0.7 3.9 96 0.3 NNW 13 17 7 9 1014.5 1014.7 0.0
25/05:30am 4.3 0.1 3.6 95 0.3 NNW 15 19 8 10 1014.5 1014.7 0.0
25/05:06am 3.7 0.1 2.7 93 0.4 NNE 11 13 6 7 1014.5 1014.7 0.0
25/05:00am 4.3 0.8 3.4 94 0.4 NNE 11 13 6 7 1014.5 1014.7 0.0
25/04:30am 6.0 2.1 5.3 95 0.3 N 15 20 8 11 1014.6 1014.8 0.0
25/04:00am 5.4 2.9 4.7 95 0.3 N 7 9 4 5 1014.4 1014.6 0.0
25/03:30am 4.5 0.6 3.6 94 0.4 N 13 15 7 8 1014.3 1014.5 0.0
25/03:00am 4.4 0.5 3.5 94 0.4 N 13 15 7 8 1014.5 1014.7 0.0
25/02:30am 5.0 2.4 4.0 93 0.4 NNW 7 11 4 6 1014.3 1014.5 0.0
25/02:00am 4.7 0.8 3.4 91 0.5 N 13 19 7 10 1014.5 1014.7 0.0
25/01:30am 5.2 2.2 4.0 92 0.5 N 9 11 5 6 1014.4 1014.6 0.0
25/01:00am 4.3 1.1 2.8 90 0.6 N 9 11 5 6 1014.5 1014.7 0.0
25/12:30am 5.3 1.8 3.6 89 0.7 NNE 11 13 6 7 1014.5 1014.7 0.0
25/12:00am 5.2 1.7 3.5 89 0.7 NNE 11 13 6 7 1014.6 1014.8 0.0
 
Date/Time
EST
Temp
°C
App
Temp
°C
Dew
Point
°C
Rel
Hum
%
Delta-T
°C
Wind Press
QNH
hPa
Press
MSL
hPa
Rain since
9am
mm
Dir  Spd
km/h
Gust
km/h
Spd
kts
Gust
kts
24/11:30pm 5.4 1.9 3.6 88 0.8 NNE 11 13 6 7 1014.6 1014.8 0.0
24/11:00pm 6.0 3.0 4.3 89 0.7 NNE 9 11 5 6 1014.6 1014.8 0.0
24/10:30pm 5.2 1.7 3.4 88 0.8 N 11 13 6 7 1014.6 1014.8 0.0
24/10:00pm 5.0 1.4 2.9 86 0.9 NNW 11 15 6 8 1014.6 1014.8 0.0
24/09:30pm 6.1 2.0 4.1 87 0.9 N 15 17 8 9 1014.2 1014.4 0.0
24/09:00pm 6.0 1.7 3.2 82 1.2 N 15 19 8 10 1014.3 1014.5 0.0
24/08:30pm 5.4 1.7 2.2 80 1.3 N 11 17 6 9 1014.1 1014.3 0.0
24/08:00pm 8.0 4.0 3.1 71 2.1 NW 13 20 7 11 1013.7 1013.9 0.0
24/07:30pm 9.3 4.8 4.3 71 2.2 WNW 17 24 9 13 1013.2 1013.4 0.0
24/07:00pm 9.7 4.6 4.3 69 2.4 WNW 20 28 11 15 1012.7 1012.9 0.0
24/06:30pm 9.7 4.7 3.7 66 2.6 WNW 19 22 10 12 1012.2 1012.4 0.0

Other Formats:

Comma delimited format used in spreadsheet applications
http://www.bom.gov.au/fwo/IDT60801/IDT60801.95966.axf

JavaScript Object Notation format (JSON) in row-major order
http://www.bom.gov.au/fwo/IDT60801/IDT60801.95966.json